sensor_id;sensor_type;location;lat;lon;timestamp;temperature;humidity
64255;DHT22;50593;44.748;19.692;2022-08-26T00:00:11;27.00;65.20
64255;DHT22;50593;44.748;19.692;2022-08-26T00:00:32;27.00;65.20
64255;DHT22;50593;44.748;19.692;2022-08-26T00:00:52;27.00;65.20
64255;DHT22;50593;44.748;19.692;2022-08-26T00:01:13;27.00;65.20
64255;DHT22;50593;44.748;19.692;2022-08-26T00:01:34;27.00;65.20
64255;DHT22;50593;44.748;19.692;2022-08-26T00:01:55;27.00;65.10
64255;DHT22;50593;44.748;19.692;2022-08-26T00:02:16;27.00;65.20
64255;DHT22;50593;44.748;19.692;2022-08-26T00:02:36;27.00;65.20
64255;DHT22;50593;44.748;19.692;2022-08-26T00:02:57;27.00;65.10
64255;DHT22;50593;44.748;19.692;2022-08-26T00:03:18;27.00;65.10
64255;DHT22;50593;44.748;19.692;2022-08-26T00:03:39;27.00;65.10
64255;DHT22;50593;44.748;19.692;2022-08-26T00:03:59;27.10;65.20
64255;DHT22;50593;44.748;19.692;2022-08-26T00:04:23;27.00;65.10
64255;DHT22;50593;44.748;19.692;2022-08-26T00:04:44;27.00;65.10
64255;DHT22;50593;44.748;19.692;2022-08-26T00:05:05;27.00;65.10
64255;DHT22;50593;44.748;19.692;2022-08-26T00:05:26;27.00;65.00
64255;DHT22;50593;44.748;19.692;2022-08-26T00:05:46;27.00;65.00
64255;DHT22;50593;44.748;19.692;2022-08-26T00:06:07;27.00;65.00
64255;DHT22;50593;44.748;19.692;2022-08-26T00:06:28;27.00;65.00
64255;DHT22;50593;44.748;19.692;2022-08-26T00:06:50;27.00;65.00
64255;DHT22;50593;44.748;19.692;2022-08-26T00:07:11;27.00;65.10
64255;DHT22;50593;44.748;19.692;2022-08-26T00:07:32;27.00;65.00
64255;DHT22;50593;44.748;19.692;2022-08-26T00:07:52;27.10;65.00
64255;DHT22;50593;44.748;19.692;2022-08-26T00:08:13;27.00;64.90
64255;DHT22;50593;44.748;19.692;2022-08-26T00:08:34;27.00;65.00
64255;DHT22;50593;44.748;19.692;2022-08-26T00:08:55;27.00;64.90
64255;DHT22;50593;44.748;19.692;2022-08-26T00:09:15;27.00;64.90
64255;DHT22;50593;44.748;19.692;2022-08-26T00:09:36;27.00;64.80
64255;DHT22;50593;44.748;19.692;2022-08-26T00:09:57;27.00;64.90
64255;DHT22;50593;44.748;19.692;2022-08-26T00:10:18;27.00;64.90
64255;DHT22;50593;44.748;19.692;2022-08-26T00:10:39;27.00;64.90
64255;DHT22;50593;44.748;19.692;2022-08-26T00:11:00;27.00;64.90
64255;DHT22;50593;44.748;19.692;2022-08-26T00:11:20;27.00;64.80
64255;DHT22;50593;44.748;19.692;2022-08-26T00:11:41;27.00;64.90
64255;DHT22;50593;44.748;19.692;2022-08-26T00:12:02;27.00;64.90
64255;DHT22;50593;44.748;19.692;2022-08-26T00:12:23;27.00;64.90
64255;DHT22;50593;44.748;19.692;2022-08-26T00:12:43;27.00;64.90
64255;DHT22;50593;44.748;19.692;2022-08-26T00:13:04;27.00;64.80
64255;DHT22;50593;44.748;19.692;2022-08-26T00:13:24;27.00;64.80
64255;DHT22;50593;44.748;19.692;2022-08-26T00:13:45;27.00;64.90
64255;DHT22;50593;44.748;19.692;2022-08-26T00:14:06;27.00;64.80
64255;DHT22;50593;44.748;19.692;2022-08-26T00:14:26;27.00;64.80
64255;DHT22;50593;44.748;19.692;2022-08-26T00:14:47;27.00;64.80
64255;DHT22;50593;44.748;19.692;2022-08-26T00:15:09;27.00;64.80
64255;DHT22;50593;44.748;19.692;2022-08-26T00:15:30;27.00;64.80
64255;DHT22;50593;44.748;19.692;2022-08-26T00:15:51;27.10;64.90
64255;DHT22;50593;44.748;19.692;2022-08-26T00:16:11;27.00;64.80
64255;DHT22;50593;44.748;19.692;2022-08-26T00:16:32;27.00;64.90
64255;DHT22;50593;44.748;19.692;2022-08-26T00:16:53;27.00;64.80
64255;DHT22;50593;44.748;19.692;2022-08-26T00:17:14;27.10;64.80
64255;DHT22;50593;44.748;19.692;2022-08-26T00:17:34;27.00;64.80
64255;DHT22;50593;44.748;19.692;2022-08-26T00:17:55;27.00;64.80
64255;DHT22;50593;44.748;19.692;2022-08-26T00:18:16;27.00;64.80
64255;DHT22;50593;44.748;19.692;2022-08-26T00:18:37;27.00;64.70
64255;DHT22;50593;44.748;19.692;2022-08-26T00:18:58;27.10;64.70
64255;DHT22;50593;44.748;19.692;2022-08-26T00:19:19;27.00;64.70
64255;DHT22;50593;44.748;19.692;2022-08-26T00:19:40;27.00;64.70
64255;DHT22;50593;44.748;19.692;2022-08-26T00:20:01;27.10;64.70
64255;DHT22;50593;44.748;19.692;2022-08-26T00:20:23;27.10;64.80
64255;DHT22;50593;44.748;19.692;2022-08-26T00:20:44;27.10;64.70
64255;DHT22;50593;44.748;19.692;2022-08-26T00:21:05;27.10;64.70
64255;DHT22;50593;44.748;19.692;2022-08-26T00:21:26;27.10;64.60
64255;DHT22;50593;44.748;19.692;2022-08-26T00:21:47;27.00;64.60
64255;DHT22;50593;44.748;19.692;2022-08-26T00:22:08;27.00;64.60
64255;DHT22;50593;44.748;19.692;2022-08-26T00:22:29;27.10;64.60
64255;DHT22;50593;44.748;19.692;2022-08-26T00:22:50;27.00;64.60
64255;DHT22;50593;44.748;19.692;2022-08-26T00:23:10;27.00;64.60
64255;DHT22;50593;44.748;19.692;2022-08-26T00:23:31;27.10;64.60
64255;DHT22;50593;44.748;19.692;2022-08-26T00:23:52;27.00;64.60
64255;DHT22;50593;44.748;19.692;2022-08-26T00:24:12;27.00;64.60
64255;DHT22;50593;44.748;19.692;2022-08-26T00:24:33;27.00;64.60
64255;DHT22;50593;44.748;19.692;2022-08-26T00:24:54;27.00;64.60
64255;DHT22;50593;44.748;19.692;2022-08-26T00:25:15;27.10;64.70
64255;DHT22;50593;44.748;19.692;2022-08-26T00:25:36;27.00;64.60
64255;DHT22;50593;44.748;19.692;2022-08-26T00:25:57;27.10;64.60
64255;DHT22;50593;44.748;19.692;2022-08-26T00:26:17;27.10;64.60
64255;DHT22;50593;44.748;19.692;2022-08-26T00:26:38;27.00;64.60
64255;DHT22;50593;44.748;19.692;2022-08-26T00:26:59;27.10;64.70
64255;DHT22;50593;44.748;19.692;2022-08-26T00:27:19;27.00;64.60
64255;DHT22;50593;44.748;19.692;2022-08-26T00:27:40;27.10;64.80
64255;DHT22;50593;44.748;19.692;2022-08-26T00:28:03;27.10;64.80
64255;DHT22;50593;44.748;19.692;2022-08-26T00:28:24;27.00;64.70
64255;DHT22;50593;44.748;19.692;2022-08-26T00:28:44;27.00;64.70
64255;DHT22;50593;44.748;19.692;2022-08-26T00:29:05;27.00;64.80
64255;DHT22;50593;44.748;19.692;2022-08-26T00:29:26;27.00;64.80
64255;DHT22;50593;44.748;19.692;2022-08-26T00:29:46;27.00;64.80
64255;DHT22;50593;44.748;19.692;2022-08-26T00:30:08;27.00;64.80
64255;DHT22;50593;44.748;19.692;2022-08-26T00:30:29;27.00;64.70
64255;DHT22;50593;44.748;19.692;2022-08-26T00:30:49;27.00;64.80
64255;DHT22;50593;44.748;19.692;2022-08-26T00:31:10;27.00;64.80
64255;DHT22;50593;44.748;19.692;2022-08-26T00:31:31;27.00;64.70
64255;DHT22;50593;44.748;19.692;2022-08-26T00:31:52;27.00;64.70
64255;DHT22;50593;44.748;19.692;2022-08-26T00:32:12;27.00;64.80
64255;DHT22;50593;44.748;19.692;2022-08-26T00:32:33;27.00;64.70
64255;DHT22;50593;44.748;19.692;2022-08-26T00:32:54;27.00;64.70
64255;DHT22;50593;44.748;19.692;2022-08-26T00:33:15;27.00;64.70
64255;DHT22;50593;44.748;19.692;2022-08-26T00:33:36;27.00;64.70
64255;DHT22;50593;44.748;19.692;2022-08-26T00:33:57;27.00;64.70
64255;DHT22;50593;44.748;19.692;2022-08-26T00:34:18;27.00;64.50
64255;DHT22;50593;44.748;19.692;2022-08-26T00:34:39;27.00;64.60
64255;DHT22;50593;44.748;19.692;2022-08-26T00:35:00;27.00;64.60
64255;DHT22;50593;44.748;19.692;2022-08-26T00:35:20;27.10;64.60
64255;DHT22;50593;44.748;19.692;2022-08-26T00:35:41;27.00;64.50
64255;DHT22;50593;44.748;19.692;2022-08-26T00:36:02;27.00;64.40
64255;DHT22;50593;44.748;19.692;2022-08-26T00:36:23;27.00;64.50
64255;DHT22;50593;44.748;19.692;2022-08-26T00:36:44;27.00;64.50
64255;DHT22;50593;44.748;19.692;2022-08-26T00:37:05;27.00;64.60
64255;DHT22;50593;44.748;19.692;2022-08-26T00:37:25;27.00;64.60
64255;DHT22;50593;44.748;19.692;2022-08-26T00:37:46;27.00;64.60
64255;DHT22;50593;44.748;19.692;2022-08-26T00:38:06;27.00;64.60
64255;DHT22;50593;44.748;19.692;2022-08-26T00:38:27;27.00;64.60
64255;DHT22;50593;44.748;19.692;2022-08-26T00:38:48;27.00;64.40
64255;DHT22;50593;44.748;19.692;2022-08-26T00:39:09;27.00;64.50
64255;DHT22;50593;44.748;19.692;2022-08-26T00:39:29;27.00;64.50
64255;DHT22;50593;44.748;19.692;2022-08-26T00:39:50;27.00;64.50
64255;DHT22;50593;44.748;19.692;2022-08-26T00:40:13;27.00;64.70
64255;DHT22;50593;44.748;19.692;2022-08-26T00:40:36;27.00;64.60
64255;DHT22;50593;44.748;19.692;2022-08-26T00:40:57;27.00;64.60
64255;DHT22;50593;44.748;19.692;2022-08-26T00:41:19;27.00;64.60
64255;DHT22;50593;44.748;19.692;2022-08-26T00:41:40;27.00;64.60
64255;DHT22;50593;44.748;19.692;2022-08-26T00:42:01;26.90;64.60
64255;DHT22;50593;44.748;19.692;2022-08-26T00:42:21;27.00;64.80
64255;DHT22;50593;44.748;19.692;2022-08-26T00:42:42;27.00;64.80
64255;DHT22;50593;44.748;19.692;2022-08-26T00:43:04;27.00;64.90
64255;DHT22;50593;44.748;19.692;2022-08-26T00:43:25;27.00;64.70
64255;DHT22;50593;44.748;19.692;2022-08-26T00:43:45;27.00;64.70
64255;DHT22;50593;44.748;19.692;2022-08-26T00:44:09;27.00;64.60
64255;DHT22;50593;44.748;19.692;2022-08-26T00:44:30;27.00;64.60
64255;DHT22;50593;44.748;19.692;2022-08-26T00:44:50;27.00;64.50
64255;DHT22;50593;44.748;19.692;2022-08-26T00:45:11;27.00;64.60
64255;DHT22;50593;44.748;19.692;2022-08-26T00:45:36;27.00;64.60
64255;DHT22;50593;44.748;19.692;2022-08-26T00:46:18;27.00;64.60
64255;DHT22;50593;44.748;19.692;2022-08-26T00:46:42;27.00;64.50
64255;DHT22;50593;44.748;19.692;2022-08-26T00:47:04;27.00;64.60
64255;DHT22;50593;44.748;19.692;2022-08-26T00:47:28;26.90;64.50
64255;DHT22;50593;44.748;19.692;2022-08-26T00:47:55;27.00;64.70
64255;DHT22;50593;44.748;19.692;2022-08-26T00:48:17;26.90;64.60
64255;DHT22;50593;44.748;19.692;2022-08-26T00:48:39;27.00;64.60
64255;DHT22;50593;44.748;19.692;2022-08-26T00:49:07;27.00;64.50
64255;DHT22;50593;44.748;19.692;2022-08-26T00:49:36;27.00;64.50
64255;DHT22;50593;44.748;19.692;2022-08-26T00:49:57;27.00;64.40
64255;DHT22;50593;44.748;19.692;2022-08-26T00:50:20;27.00;64.60
64255;DHT22;50593;44.748;19.692;2022-08-26T00:50:48;27.00;64.60
64255;DHT22;50593;44.748;19.692;2022-08-26T00:51:13;27.00;64.70
64255;DHT22;50593;44.748;19.692;2022-08-26T00:51:36;27.00;64.70
64255;DHT22;50593;44.748;19.692;2022-08-26T00:52:00;27.00;64.70
64255;DHT22;50593;44.748;19.692;2022-08-26T00:52:22;26.90;64.60
64255;DHT22;50593;44.748;19.692;2022-08-26T00:52:43;27.00;64.60
64255;DHT22;50593;44.748;19.692;2022-08-26T00:53:05;27.00;64.60
64255;DHT22;50593;44.748;19.692;2022-08-26T00:53:42;26.90;64.60
64255;DHT22;50593;44.748;19.692;2022-08-26T00:54:06;27.00;64.60
64255;DHT22;50593;44.748;19.692;2022-08-26T00:54:27;26.90;64.60
64255;DHT22;50593;44.748;19.692;2022-08-26T00:54:53;26.90;64.60
64255;DHT22;50593;44.748;19.692;2022-08-26T00:55:19;26.90;64.60
64255;DHT22;50593;44.748;19.692;2022-08-26T00:55:41;26.90;64.60
64255;DHT22;50593;44.748;19.692;2022-08-26T00:56:03;26.90;64.70
64255;DHT22;50593;44.748;19.692;2022-08-26T00:56:42;26.90;64.60
64255;DHT22;50593;44.748;19.692;2022-08-26T00:57:05;26.90;64.80
64255;DHT22;50593;44.748;19.692;2022-08-26T00:57:27;26.90;64.80
64255;DHT22;50593;44.748;19.692;2022-08-26T00:57:48;26.90;64.70
64255;DHT22;50593;44.748;19.692;2022-08-26T00:58:09;26.90;64.30
64255;DHT22;50593;44.748;19.692;2022-08-26T00:58:31;26.90;64.50
64255;DHT22;50593;44.748;19.692;2022-08-26T00:58:53;26.90;64.80
64255;DHT22;50593;44.748;19.692;2022-08-26T00:59:16;26.90;65.00
64255;DHT22;50593;44.748;19.692;2022-08-26T00:59:37;26.90;64.60
64255;DHT22;50593;44.748;19.692;2022-08-26T00:59:58;26.90;64.50
64255;DHT22;50593;44.748;19.692;2022-08-26T01:00:21;26.90;64.70
64255;DHT22;50593;44.748;19.692;2022-08-26T01:00:43;26.90;64.90
64255;DHT22;50593;44.748;19.692;2022-08-26T01:01:04;26.90;64.60
64255;DHT22;50593;44.748;19.692;2022-08-26T01:01:24;26.90;64.70
64255;DHT22;50593;44.748;19.692;2022-08-26T01:01:47;26.90;64.80
64255;DHT22;50593;44.748;19.692;2022-08-26T01:02:07;26.90;64.90
64255;DHT22;50593;44.748;19.692;2022-08-26T01:02:28;26.90;64.90
64255;DHT22;50593;44.748;19.692;2022-08-26T01:02:49;26.90;64.80
64255;DHT22;50593;44.748;19.692;2022-08-26T01:03:09;26.90;64.60
64255;DHT22;50593;44.748;19.692;2022-08-26T01:03:30;26.90;64.50
64255;DHT22;50593;44.748;19.692;2022-08-26T01:03:52;26.90;64.60
64255;DHT22;50593;44.748;19.692;2022-08-26T01:04:17;26.90;64.60
64255;DHT22;50593;44.748;19.692;2022-08-26T01:04:38;26.90;64.60
64255;DHT22;50593;44.748;19.692;2022-08-26T01:04:59;26.90;64.60
64255;DHT22;50593;44.748;19.692;2022-08-26T01:05:21;26.90;65.00
64255;DHT22;50593;44.748;19.692;2022-08-26T01:05:42;26.90;65.00
64255;DHT22;50593;44.748;19.692;2022-08-26T01:06:03;29.10;66.40
64255;DHT22;50593;44.748;19.692;2022-08-26T01:06:24;26.90;64.60
64255;DHT22;50593;44.748;19.692;2022-08-26T01:06:46;26.90;64.70
64255;DHT22;50593;44.748;19.692;2022-08-26T01:07:07;26.90;65.10
64255;DHT22;50593;44.748;19.692;2022-08-26T01:07:30;26.90;65.00
64255;DHT22;50593;44.748;19.692;2022-08-26T01:07:50;26.90;65.00
64255;DHT22;50593;44.748;19.692;2022-08-26T01:08:11;26.90;65.10
64255;DHT22;50593;44.748;19.692;2022-08-26T01:08:32;26.90;65.10
64255;DHT22;50593;44.748;19.692;2022-08-26T01:08:53;26.90;65.40
64255;DHT22;50593;44.748;19.692;2022-08-26T01:09:14;26.90;65.20
64255;DHT22;50593;44.748;19.692;2022-08-26T01:09:35;26.90;64.80
64255;DHT22;50593;44.748;19.692;2022-08-26T01:09:57;26.90;64.60
64255;DHT22;50593;44.748;19.692;2022-08-26T01:10:23;26.90;64.90
64255;DHT22;50593;44.748;19.692;2022-08-26T01:10:44;26.90;65.00
64255;DHT22;50593;44.748;19.692;2022-08-26T01:11:05;26.90;65.20
64255;DHT22;50593;44.748;19.692;2022-08-26T01:11:26;26.90;65.00
64255;DHT22;50593;44.748;19.692;2022-08-26T01:11:47;26.90;65.00
64255;DHT22;50593;44.748;19.692;2022-08-26T01:12:08;26.90;64.90
64255;DHT22;50593;44.748;19.692;2022-08-26T01:12:30;26.90;64.90
64255;DHT22;50593;44.748;19.692;2022-08-26T01:12:53;26.90;64.80
64255;DHT22;50593;44.748;19.692;2022-08-26T01:13:16;26.90;64.90
64255;DHT22;50593;44.748;19.692;2022-08-26T01:13:37;26.90;65.00
64255;DHT22;50593;44.748;19.692;2022-08-26T01:13:58;26.90;65.00
64255;DHT22;50593;44.748;19.692;2022-08-26T01:14:19;26.90;65.00
64255;DHT22;50593;44.748;19.692;2022-08-26T01:14:40;26.90;65.00
64255;DHT22;50593;44.748;19.692;2022-08-26T01:15:04;26.90;65.00
64255;DHT22;50593;44.748;19.692;2022-08-26T01:15:28;26.90;65.00
64255;DHT22;50593;44.748;19.692;2022-08-26T01:15:51;26.90;64.90
64255;DHT22;50593;44.748;19.692;2022-08-26T01:16:13;26.90;64.80
64255;DHT22;50593;44.748;19.692;2022-08-26T01:16:35;26.90;64.80
64255;DHT22;50593;44.748;19.692;2022-08-26T01:16:55;26.90;64.80
64255;DHT22;50593;44.748;19.692;2022-08-26T01:17:16;26.90;64.90
64255;DHT22;50593;44.748;19.692;2022-08-26T01:17:37;26.90;64.80
64255;DHT22;50593;44.748;19.692;2022-08-26T01:17:58;26.90;64.90
64255;DHT22;50593;44.748;19.692;2022-08-26T01:18:19;26.90;64.90
64255;DHT22;50593;44.748;19.692;2022-08-26T01:18:40;26.90;64.80
64255;DHT22;50593;44.748;19.692;2022-08-26T01:19:09;26.90;64.90
64255;DHT22;50593;44.748;19.692;2022-08-26T01:21:47;26.90;64.80
64255;DHT22;50593;44.748;19.692;2022-08-26T01:22:19;26.90;64.80
64255;DHT22;50593;44.748;19.692;2022-08-26T01:22:47;26.90;64.60
64255;DHT22;50593;44.748;19.692;2022-08-26T01:23:09;27.70;65.20
64255;DHT22;50593;44.748;19.692;2022-08-26T01:23:35;26.90;64.80
64255;DHT22;50593;44.748;19.692;2022-08-26T01:23:56;26.90;64.80
64255;DHT22;50593;44.748;19.692;2022-08-26T01:24:17;26.90;64.80
64255;DHT22;50593;44.748;19.692;2022-08-26T01:24:37;26.90;64.80
64255;DHT22;50593;44.748;19.692;2022-08-26T01:24:59;26.90;64.80
64255;DHT22;50593;44.748;19.692;2022-08-26T01:25:20;26.90;64.80
64255;DHT22;50593;44.748;19.692;2022-08-26T01:25:46;26.90;64.80
64255;DHT22;50593;44.748;19.692;2022-08-26T01:26:11;26.90;64.90
64255;DHT22;50593;44.748;19.692;2022-08-26T01:26:34;26.90;64.80
64255;DHT22;50593;44.748;19.692;2022-08-26T01:27:00;26.90;64.80
64255;DHT22;50593;44.748;19.692;2022-08-26T01:27:21;26.90;64.90
64255;DHT22;50593;44.748;19.692;2022-08-26T01:27:43;26.90;64.90
64255;DHT22;50593;44.748;19.692;2022-08-26T01:28:05;26.90;65.00
64255;DHT22;50593;44.748;19.692;2022-08-26T01:28:28;26.90;64.80
64255;DHT22;50593;44.748;19.692;2022-08-26T01:28:50;26.90;64.80
64255;DHT22;50593;44.748;19.692;2022-08-26T01:29:17;26.90;65.10
64255;DHT22;50593;44.748;19.692;2022-08-26T01:29:40;26.90;64.90
64255;DHT22;50593;44.748;19.692;2022-08-26T01:30:03;26.90;64.90
64255;DHT22;50593;44.748;19.692;2022-08-26T01:30:24;26.90;64.80
64255;DHT22;50593;44.748;19.692;2022-08-26T01:30:46;26.90;64.90
64255;DHT22;50593;44.748;19.692;2022-08-26T01:31:08;26.90;64.70
64255;DHT22;50593;44.748;19.692;2022-08-26T01:31:33;26.90;64.70
64255;DHT22;50593;44.748;19.692;2022-08-26T01:31:54;26.90;64.70
64255;DHT22;50593;44.748;19.692;2022-08-26T01:32:17;26.90;64.70
64255;DHT22;50593;44.748;19.692;2022-08-26T01:32:38;26.90;64.80
64255;DHT22;50593;44.748;19.692;2022-08-26T01:33:00;26.90;64.70
64255;DHT22;50593;44.748;19.692;2022-08-26T01:33:24;26.90;64.70
64255;DHT22;50593;44.748;19.692;2022-08-26T01:34:38;26.90;64.70
64255;DHT22;50593;44.748;19.692;2022-08-26T01:34:59;26.90;64.70
64255;DHT22;50593;44.748;19.692;2022-08-26T01:35:20;26.90;64.60
64255;DHT22;50593;44.748;19.692;2022-08-26T01:35:41;26.90;64.60
64255;DHT22;50593;44.748;19.692;2022-08-26T01:36:02;26.90;64.80
64255;DHT22;50593;44.748;19.692;2022-08-26T01:36:22;26.90;64.50
64255;DHT22;50593;44.748;19.692;2022-08-26T01:36:43;26.90;64.60
64255;DHT22;50593;44.748;19.692;2022-08-26T01:37:25;26.90;64.60
64255;DHT22;50593;44.748;19.692;2022-08-26T01:37:47;26.90;64.60
64255;DHT22;50593;44.748;19.692;2022-08-26T01:38:09;26.90;64.60
64255;DHT22;50593;44.748;19.692;2022-08-26T01:38:30;26.90;64.50
64255;DHT22;50593;44.748;19.692;2022-08-26T01:38:50;26.90;64.60
64255;DHT22;50593;44.748;19.692;2022-08-26T01:39:12;26.90;64.70
64255;DHT22;50593;44.748;19.692;2022-08-26T01:39:33;26.90;64.40
64255;DHT22;50593;44.748;19.692;2022-08-26T01:39:54;26.90;64.50
64255;DHT22;50593;44.748;19.692;2022-08-26T01:40:17;26.90;64.50
64255;DHT22;50593;44.748;19.692;2022-08-26T01:40:39;27.00;64.50
64255;DHT22;50593;44.748;19.692;2022-08-26T01:41:02;26.90;64.50
64255;DHT22;50593;44.748;19.692;2022-08-26T01:41:24;26.90;64.50
64255;DHT22;50593;44.748;19.692;2022-08-26T01:41:45;26.90;64.40
64255;DHT22;50593;44.748;19.692;2022-08-26T01:42:07;26.90;64.40
64255;DHT22;50593;44.748;19.692;2022-08-26T01:42:29;27.00;64.50
64255;DHT22;50593;44.748;19.692;2022-08-26T01:42:50;26.90;64.40
64255;DHT22;50593;44.748;19.692;2022-08-26T01:43:14;26.90;64.50
64255;DHT22;50593;44.748;19.692;2022-08-26T01:43:36;26.90;64.30
64255;DHT22;50593;44.748;19.692;2022-08-26T01:43:57;26.90;64.30
64255;DHT22;50593;44.748;19.692;2022-08-26T01:44:19;26.90;64.30
64255;DHT22;50593;44.748;19.692;2022-08-26T01:44:54;26.90;64.30
64255;DHT22;50593;44.748;19.692;2022-08-26T01:45:17;26.90;65.20
64255;DHT22;50593;44.748;19.692;2022-08-26T01:45:39;27.00;64.40
64255;DHT22;50593;44.748;19.692;2022-08-26T01:46:00;26.90;65.30
64255;DHT22;50593;44.748;19.692;2022-08-26T01:46:21;26.90;64.40
64255;DHT22;50593;44.748;19.692;2022-08-26T01:46:43;26.90;64.30
64255;DHT22;50593;44.748;19.692;2022-08-26T01:47:05;26.90;64.30
64255;DHT22;50593;44.748;19.692;2022-08-26T01:47:26;26.90;64.20
64255;DHT22;50593;44.748;19.692;2022-08-26T01:47:49;26.90;65.20
64255;DHT22;50593;44.748;19.692;2022-08-26T01:48:11;26.90;64.30
64255;DHT22;50593;44.748;19.692;2022-08-26T01:48:33;26.90;64.30
64255;DHT22;50593;44.748;19.692;2022-08-26T01:48:55;27.00;64.40
64255;DHT22;50593;44.748;19.692;2022-08-26T01:49:17;27.00;64.30
64255;DHT22;50593;44.748;19.692;2022-08-26T01:49:40;26.90;64.20
64255;DHT22;50593;44.748;19.692;2022-08-26T01:50:03;27.00;64.20
64255;DHT22;50593;44.748;19.692;2022-08-26T01:50:25;27.00;64.20
64255;DHT22;50593;44.748;19.692;2022-08-26T01:50:46;27.00;64.10
64255;DHT22;50593;44.748;19.692;2022-08-26T01:51:07;27.00;64.20
64255;DHT22;50593;44.748;19.692;2022-08-26T01:51:29;27.00;64.40
64255;DHT22;50593;44.748;19.692;2022-08-26T01:51:50;27.00;64.20
64255;DHT22;50593;44.748;19.692;2022-08-26T01:52:13;27.00;64.20
64255;DHT22;50593;44.748;19.692;2022-08-26T01:52:36;27.00;64.20
64255;DHT22;50593;44.748;19.692;2022-08-26T01:53:00;27.00;64.20
64255;DHT22;50593;44.748;19.692;2022-08-26T01:53:21;27.00;64.20
64255;DHT22;50593;44.748;19.692;2022-08-26T01:53:43;27.00;64.10
64255;DHT22;50593;44.748;19.692;2022-08-26T01:54:05;27.00;64.10
64255;DHT22;50593;44.748;19.692;2022-08-26T01:54:26;27.00;64.10
64255;DHT22;50593;44.748;19.692;2022-08-26T01:54:46;27.00;64.20
64255;DHT22;50593;44.748;19.692;2022-08-26T01:55:07;26.90;64.10
64255;DHT22;50593;44.748;19.692;2022-08-26T01:55:28;27.00;64.10
64255;DHT22;50593;44.748;19.692;2022-08-26T01:55:50;27.00;64.10
64255;DHT22;50593;44.748;19.692;2022-08-26T01:56:12;27.00;64.20
64255;DHT22;50593;44.748;19.692;2022-08-26T01:56:33;27.00;64.00
64255;DHT22;50593;44.748;19.692;2022-08-26T01:56:54;27.00;64.00
64255;DHT22;50593;44.748;19.692;2022-08-26T01:57:15;26.90;64.00
64255;DHT22;50593;44.748;19.692;2022-08-26T01:57:36;27.00;64.00
64255;DHT22;50593;44.748;19.692;2022-08-26T01:57:57;27.00;64.00
64255;DHT22;50593;44.748;19.692;2022-08-26T01:58:29;27.00;64.10
64255;DHT22;50593;44.748;19.692;2022-08-26T01:58:56;27.00;64.10
64255;DHT22;50593;44.748;19.692;2022-08-26T01:59:17;27.00;64.90
64255;DHT22;50593;44.748;19.692;2022-08-26T01:59:39;27.00;64.10
64255;DHT22;50593;44.748;19.692;2022-08-26T02:00:00;27.00;64.10
64255;DHT22;50593;44.748;19.692;2022-08-26T02:00:22;27.00;64.00
64255;DHT22;50593;44.748;19.692;2022-08-26T02:00:43;27.00;64.00
64255;DHT22;50593;44.748;19.692;2022-08-26T02:01:04;26.90;64.00
64255;DHT22;50593;44.748;19.692;2022-08-26T02:01:26;27.00;64.00
64255;DHT22;50593;44.748;19.692;2022-08-26T02:01:47;27.00;64.10
64255;DHT22;50593;44.748;19.692;2022-08-26T02:02:08;27.00;64.10
64255;DHT22;50593;44.748;19.692;2022-08-26T02:02:28;27.00;64.00
64255;DHT22;50593;44.748;19.692;2022-08-26T02:02:50;27.00;64.00
64255;DHT22;50593;44.748;19.692;2022-08-26T02:03:30;27.00;64.00
64255;DHT22;50593;44.748;19.692;2022-08-26T02:04:47;27.00;64.00
64255;DHT22;50593;44.748;19.692;2022-08-26T02:05:08;27.00;64.80
64255;DHT22;50593;44.748;19.692;2022-08-26T02:05:30;27.00;64.80
64255;DHT22;50593;44.748;19.692;2022-08-26T02:05:53;27.00;64.00
64255;DHT22;50593;44.748;19.692;2022-08-26T02:06:14;27.00;63.90
64255;DHT22;50593;44.748;19.692;2022-08-26T02:06:35;27.00;64.00
64255;DHT22;50593;44.748;19.692;2022-08-26T02:06:56;27.00;64.00
64255;DHT22;50593;44.748;19.692;2022-08-26T02:07:16;27.00;64.00
64255;DHT22;50593;44.748;19.692;2022-08-26T02:07:38;27.00;64.00
64255;DHT22;50593;44.748;19.692;2022-08-26T02:07:59;27.00;64.00
64255;DHT22;50593;44.748;19.692;2022-08-26T02:08:22;27.00;64.00
64255;DHT22;50593;44.748;19.692;2022-08-26T02:08:46;27.00;64.00
64255;DHT22;50593;44.748;19.692;2022-08-26T02:09:07;27.00;64.00
64255;DHT22;50593;44.748;19.692;2022-08-26T02:09:27;27.00;64.00
64255;DHT22;50593;44.748;19.692;2022-08-26T02:09:48;27.00;64.00
64255;DHT22;50593;44.748;19.692;2022-08-26T02:10:09;27.00;64.00
64255;DHT22;50593;44.748;19.692;2022-08-26T02:10:30;26.90;63.90
64255;DHT22;50593;44.748;19.692;2022-08-26T02:10:52;27.00;64.00
64255;DHT22;50593;44.748;19.692;2022-08-26T02:11:12;27.00;64.00
64255;DHT22;50593;44.748;19.692;2022-08-26T02:11:33;27.00;64.00
64255;DHT22;50593;44.748;19.692;2022-08-26T02:11:54;27.00;64.00
64255;DHT22;50593;44.748;19.692;2022-08-26T02:12:15;27.00;64.00
64255;DHT22;50593;44.748;19.692;2022-08-26T02:12:37;27.00;64.00
64255;DHT22;50593;44.748;19.692;2022-08-26T02:12:58;27.00;64.00
64255;DHT22;50593;44.748;19.692;2022-08-26T02:13:18;27.00;64.00
64255;DHT22;50593;44.748;19.692;2022-08-26T02:13:43;27.00;63.90
64255;DHT22;50593;44.748;19.692;2022-08-26T02:14:21;27.00;63.90
64255;DHT22;50593;44.748;19.692;2022-08-26T02:14:43;27.00;64.00
64255;DHT22;50593;44.748;19.692;2022-08-26T02:15:07;26.90;63.80
64255;DHT22;50593;44.748;19.692;2022-08-26T02:15:29;27.00;64.00
64255;DHT22;50593;44.748;19.692;2022-08-26T02:15:50;27.00;64.00
64255;DHT22;50593;44.748;19.692;2022-08-26T02:16:11;26.90;63.90
64255;DHT22;50593;44.748;19.692;2022-08-26T02:16:36;27.00;64.00
64255;DHT22;50593;44.748;19.692;2022-08-26T02:16:57;27.00;64.00
64255;DHT22;50593;44.748;19.692;2022-08-26T02:17:19;27.00;64.00
64255;DHT22;50593;44.748;19.692;2022-08-26T02:17:42;27.00;64.00
64255;DHT22;50593;44.748;19.692;2022-08-26T02:18:03;27.00;64.00
64255;DHT22;50593;44.748;19.692;2022-08-26T02:18:24;27.00;64.00
64255;DHT22;50593;44.748;19.692;2022-08-26T02:18:45;27.00;64.00
64255;DHT22;50593;44.748;19.692;2022-08-26T02:19:10;27.00;64.00
64255;DHT22;50593;44.748;19.692;2022-08-26T02:19:33;27.00;64.10
64255;DHT22;50593;44.748;19.692;2022-08-26T02:19:54;27.00;64.00
64255;DHT22;50593;44.748;19.692;2022-08-26T02:20:16;27.00;64.00
64255;DHT22;50593;44.748;19.692;2022-08-26T02:20:37;27.00;64.00
64255;DHT22;50593;44.748;19.692;2022-08-26T02:20:58;26.90;63.90